Date,TemperatureHighF,TemperatureAvgF,TemperatureLowF,DewpointHighF,DewpointAvgF,DewpointLowF,HumidityHigh,HumidityAvg,HumidityLow,PressureMaxIn,PressureMinIn,WindSpeedMaxMPH,WindSpeedAvgMPH,GustSpeedMaxMPH,PrecipitationSumIn
2013-1-1,34,31,27,25,22,21,87,70,62,0.00,40.00,15,10,30,0.00
2013-1-2,34,32,31,24,22,21,69,67,62,0.00,40.00,17,15,36,0.00
2013-1-3,34,31,28,26,21,18,90,66,55,0.00,40.00,17,12,36,0.00
2013-1-4,34,31,29,32,29,26,96,90,80,0.00,40.00,7,3,16,0.19
2013-1-5,32,31,30,30,28,26,96,88,80,0.00,40.00,11,5,21,0.01
2013-1-6,34,32,31,33,31,29,98,95,91,0.00,40.00,5,1,9,0.01
2013-1-7,49,41,33,47,40,32,99,95,86,0.00,40.00,6,3,16,0.01
2013-1-8,54,46,39,48,43,38,99,90,73,0.00,40.00,9,4,25,0.00
2013-1-9,53,42,37,46,40,36,98,93,78,0.00,40.00,9,4,21,0.00
2013-1-10,41,37,36,36,34,32,94,90,81,0.00,40.00,6,5,15,0.00
2013-1-11,38,32,27,34,30,26,97,91,76,0.00,40.00,6,2,15,0.00
2013-1-12,36,28,24,30,26,23,97,93,76,0.00,40.00,3,1,4,0.00
2013-1-13,35,26,21,27,23,19,95,90,72,0.00,40.00,3,1,5,0.00
2013-1-14,35,30,23,33,27,22,96,89,75,0.00,40.00,8,5,17,0.00
2013-1-15,43,37,34,36,34,33,97,91,76,0.00,40.00,8,4,16,0.00
2013-1-16,36,34,30,33,32,29,98,93,89,0.00,40.00,3,2,7,0.00
2013-1-17,37,31,28,29,27,25,98,86,66,0.00,40.00,6,3,15,0.00
2013-1-18,40,30,26,32,28,25,97,90,70,0.00,40.00,4,2,11,0.01
2013-1-19,41,30,26,32,28,25,97,91,64,0.00,40.00,4,3,8,0.01
2013-1-20,36,29,24,27,25,23,96,83,65,0.00,40.00,9,5,20,0.00
2013-1-21,36,29,25,25,23,22,91,79,62,0.00,40.00,8,5,20,0.00
2013-1-22,33,30,27,24,22,21,84,74,64,0.00,40.00,11,9,26,0.00
2013-1-23,33,30,29,30,24,21,95,79,66,0.00,40.00,11,5,22,0.00
2013-1-24,39,34,31,37,33,30,98,95,83,0.00,40.00,4,2,8,0.50
2013-1-25,38,36,34,37,35,34,99,98,98,0.00,40.00,4,2,8,0.97
2013-1-26,42,38,35,41,37,35,99,98,95,0.00,40.00,4,2,9,0.22
2013-1-27,43,39,38,39,38,37,99,95,86,0.00,40.00,5,4,14,0.31
2013-1-28,42,40,38,41,39,37,97,95,93,0.00,40.00,10,7,22,1.25
2013-1-29,47,44,41,44,42,40,97,94,85,0.00,40.00,8,6,22,1.38
2013-1-30,47,45,43,46,44,41,98,96,93,0.00,40.00,7,6,18,0.29
2013-1-31,51,47,44,45,44,43,98,88,73,0.00,40.00,7,4,15,0.07
2013-2-1,52,44,36,46,41,36,99,90,74,0.00,40.00,6,2,15,0.02
2013-2-2,54,42,37,44,38,35,98,85,56,0.00,40.00,9,3,19,0.01
2013-2-3,47,40,31,42,38,31,99,92,77,0.00,40.00,5,2,11,0.01
2013-2-4,52,44,38,44,40,37,98,88,63,0.00,40.00,4,2,9,0.00
2013-2-5,49,43,39,46,42,38,98,95,86,0.00,40.00,6,3,16,0.44
2013-2-6,48,44,40,44,41,39,98,91,78,0.00,40.00,5,2,14,0.19
2013-2-7,51,40,32,43,37,32,99,92,66,0.00,40.00,6,2,14,0.25
2013-2-8,43,35,28,37,32,27,98,88,67,0.00,40.00,9,3,20,0.01
2013-2-9,45,40,32,39,36,31,98,83,72,0.00,40.00,7,4,16,0.01
2013-2-10,46,40,32,38,35,32,98,84,69,0.00,40.00,6,3,15,0.00
2013-2-11,45,43,42,43,38,35,95,81,72,0.00,40.00,7,5,14,0.00
2013-2-12,50,46,44,47,45,42,97,95,88,0.00,40.00,7,5,16,0.15
2013-2-13,51,47,40,47,44,39,96,89,77,0.00,40.00,8,5,20,0.10
2013-2-14,54,43,37,43,39,36,99,88,62,0.00,40.00,6,2,15,0.01
2013-2-15,58,43,36,45,39,35,98,87,56,0.00,40.00,7,3,15,0.00
2013-2-16,47,42,34,45,40,34,99,93,82,0.00,40.00,7,4,15,0.13
2013-2-17,45,41,34,37,35,32,94,80,64,0.00,40.00,6,4,14,0.06
2013-2-18,47,38,33,37,33,31,96,84,55,0.00,40.00,5,2,12,0.00
2013-2-19,54,41,34,39,33,28,95,76,40,0.00,40.00,6,2,12,0.00
2013-2-20,47,39,30,41,36,29,98,89,64,0.00,40.00,7,3,15,0.16
2013-2-21,44,41,39,41,39,38,98,94,78,0.00,40.00,6,4,19,0.44
2013-2-22,45,43,39,42,40,36,96,89,75,0.00,40.00,9,6,29,0.87
2013-2-23,44,40,38,39,37,34,94,90,81,0.00,40.00,9,6,21,0.33
2013-2-24,51,41,38,41,37,33,96,85,55,0.00,40.00,6,2,13,0.03
2013-2-25,44,41,38,41,38,35,98,90,78,0.00,40.00,8,5,21,0.83
2013-2-26,48,40,36,40,37,34,98,88,58,0.00,40.00,5,2,13,0.07
2013-2-27,52,44,38,45,40,37,98,88,64,0.00,40.00,4,2,10,0.06
2013-2-28,53,47,43,52,46,42,99,98,96,0.00,40.00,5,2,12,1.70
2013-3-1,59,53,48,53,50,47,98,92,75,0.00,40.00,6,3,12,0.47
2013-3-2,54,48,44,49,46,40,99,93,79,0.00,40.00,8,3,17,0.10
2013-3-3,52,42,32,40,35,31,96,77,48,0.00,40.00,8,5,15,0.10
2013-3-4,54,39,30,35,28,22,98,70,29,0.00,40.00,12,5,24,0.01
2013-3-5,43,39,35,40,35,31,96,83,67,0.00,40.00,11,3,20,0.03
2013-3-6,43,41,38,41,38,35,97,91,80,0.00,40.00,11,4,20,0.59
2013-3-7,57,44,35,43,38,31,98,84,39,0.00,40.00,4,2,10,0.03
2013-3-8,60,41,32,40,35,31,98,82,36,0.00,40.00,4,2,12,0.00
2013-3-9,59,42,31,38,34,28,98,77,31,0.00,40.00,8,3,19,0.00
2013-3-10,51,44,34,45,39,32,97,85,61,0.00,40.00,8,4,17,0.01
2013-3-11,52,48,45,49,46,44,98,94,83,0.00,40.00,5,2,9,0.04
2013-3-12,57,50,45,52,49,45,99,95,79,0.00,40.00,5,2,14,0.15
2013-3-13,65,52,45,51,47,45,99,85,49,0.00,40.00,5,2,11,0.01
2013-3-14,64,51,44,48,45,41,98,83,48,0.00,40.00,8,3,22,0.06
2013-3-15,63,54,49,52,49,45,98,86,51,0.00,40.00,6,3,11,0.16
2013-3-16,53,47,40,48,44,36,95,90,83,0.00,40.00,9,5,20,0.59
2013-3-17,45,41,38,37,36,32,93,82,62,0.00,40.00,8,6,29,0.51
2013-3-18,52,43,35,39,36,33,94,77,53,0.00,40.00,8,5,16,0.04
2013-3-19,48,42,35,41,34,29,97,78,50,0.00,40.00,12,5,21,0.34
2013-3-20,53,43,38,45,40,34,98,87,58,0.00,40.00,9,4,27,1.18
2013-3-21,45,40,37,38,36,32,95,85,63,0.00,40.00,9,6,21,0.34
2013-3-22,46,38,33,36,34,31,96,85,61,0.00,40.00,7,5,18,0.15
2013-3-23,52,38,32,36,31,23,98,80,34,0.00,40.00,4,2,9,0.01
2013-3-24,53,42,32,38,31,24,97,71,33,0.00,40.00,12,4,22,0.00
2013-3-25,59,46,36,43,33,24,90,66,30,0.00,40.00,13,4,26,0.00
2013-3-26,54,45,37,45,39,36,95,80,53,0.00,40.00,4,2,9,0.00
2013-3-27,65,48,40,44,41,39,98,82,41,0.00,40.00,4,2,9,0.01
2013-3-28,64,56,49,51,47,45,89,74,51,0.00,40.00,4,2,7,0.07
2013-3-29,71,55,44,50,46,42,98,75,37,0.00,40.00,5,2,9,0.01
2013-3-30,74,56,42,51,44,41,97,69,33,0.00,40.00,13,4,24,0.01
2013-3-31,77,59,43,50,42,35,93,61,22,0.00,40.00,10,4,19,0.00
2013-4-1,62,59,56,50,48,47,77,70,57,0.00,40.00,6,4,15,0.00
2013-4-2,67,57,50,49,48,45,92,72,46,0.00,40.00,7,4,18,0.00
2013-4-3,66,56,45,51,47,44,97,74,47,0.00,40.00,7,3,18,0.00
2013-4-4,59,54,52,54,50,47,95,86,75,0.00,40.00,4,3,18,0.18
2013-4-5,58,53,49,53,50,47,98,89,75,0.00,40.00,6,4,14,0.52
2013-4-6,51,48,43,48,46,42,98,92,82,0.00,40.00,9,3,16,0.86
2013-4-7,49,45,42,43,42,37,98,89,64,0.00,40.00,12,4,31,1.06
2013-4-8,54,46,42,44,41,39,95,84,61,0.00,40.00,7,4,16,0.36
2013-4-9,57,48,38,47,42,37,98,82,59,0.00,40.00,7,2,15,0.01
2013-4-10,59,52,47,51,45,38,96,80,58,0.00,40.00,9,5,23,0.43
2013-4-11,57,49,42,44,40,37,93,72,51,0.00,40.00,8,5,19,0.09
2013-4-12,55,46,37,45,39,36,97,81,51,0.00,40.00,8,4,20,0.24
2013-4-13,48,43,38,44,38,32,93,82,53,0.00,40.00,10,6,26,0.69
2013-4-14,54,44,39,41,38,34,97,81,46,0.00,40.00,8,5,17,0.23
2013-4-15,53,44,37,41,38,35,97,80,52,0.00,40.00,6,2,15,0.05
2013-4-16,57,44,37,45,38,30,97,81,35,0.00,40.00,6,2,12,0.13
2013-4-17,61,47,35,41,37,31,98,72,35,0.00,40.00,7,3,16,0.07
2013-4-18,58,51,46,49,40,37,94,67,49,0.00,40.00,7,5,15,0.03
2013-4-19,54,51,49,51,49,47,96,92,85,0.00,40.00,9,5,22,0.69
2013-4-20,58,51,47,47,45,41,96,78,57,0.00,40.00,7,6,19,0.07
2013-4-21,52,49,45,47,44,40,95,81,73,0.00,40.00,7,5,16,0.01
2013-4-22,66,50,38,44,34,21,97,64,20,0.00,40.00,10,3,25,0.01
2013-4-23,69,51,35,42,34,29,91,59,24,0.00,40.00,8,3,16,0.00
2013-4-24,76,57,40,44,34,23,84,51,16,0.00,40.00,10,4,21,0.00
2013-4-25,75,59,43,48,41,34,92,56,26,0.00,40.00,8,4,19,0.00
2013-4-26,79,61,45,48,42,32,94,57,18,0.00,40.00,8,4,17,0.00
2013-4-27,72,58,43,47,40,35,91,57,27,0.00,40.00,9,4,19,0.00
2013-4-28,65,56,50,52,46,37,95,72,36,0.00,40.00,8,6,19,0.13
2013-4-29,58,51,47,49,43,31,94,76,38,0.00,40.00,8,6,20,0.32
2013-4-30,57,50,41,40,33,28,79,54,34,0.00,40.00,8,5,18,0.00
2013-5-1,69,51,33,42,32,24,95,57,18,0.00,40.00,10,4,21,0.00
2013-5-2,78,60,42,51,36,26,77,47,19,0.00,40.00,12,4,24,0.00
2013-5-3,81,61,45,50,44,36,88,59,20,0.00,40.00,7,2,16,0.00
2013-5-4,83,69,49,49,36,26,87,38,14,0.00,40.00,13,7,26,0.00
2013-5-5,84,70,56,47,37,30,57,33,15,0.00,40.00,9,5,23,0.00
2013-5-6,80,66,51,51,47,43,76,52,32,0.00,40.00,10,4,19,0.00
2013-5-7,75,66,57,51,48,46,69,54,38,0.00,40.00,8,6,20,0.00
2013-5-8,67,61,53,52,49,47,83,67,54,0.00,40.00,10,7,23,0.00
2013-5-9,77,63,53,55,52,49,88,70,43,0.00,40.00,9,5,21,0.00
2013-5-10,82,68,54,55,49,-100,89,57,27,0.00,40.00,9,4,19,0.00
2013-5-11,85,70,60,56,52,-100,77,55,32,0.00,40.00,8,4,16,0.00
2013-5-12,72,65,59,60,58,55,96,79,61,0.00,40.00,6,4,13,0.02
2013-5-13,64,59,52,58,53,43,97,81,51,0.00,40.00,12,5,27,0.27
2013-5-14,68,55,44,48,40,27,94,63,21,0.00,40.00,7,3,15,0.03
2013-5-15,60,53,45,51,45,41,93,77,58,0.00,40.00,7,3,15,0.01
2013-5-16,68,51,52,54,29,-100,97,82,53,0.00,40.00,7,2,24,0.03
2013-5-17,64,56,51,52,42,-100,95,76,43,0.00,40.00,7,4,17,0.06
2013-5-18,58,54,52,51,48,46,92,81,66,0.00,40.00,5,4,14,0.04
2013-5-19,63,57,50,51,48,46,89,73,54,0.00,40.00,8,5,19,0.01
2013-5-20,73,58,44,50,46,43,97,69,35,0.00,40.00,8,3,17,0.00
2013-5-21,60,50,43,49,44,41,96,81,54,0.00,40.00,7,4,20,0.61
2013-5-22,48,45,43,45,43,40,96,92,87,0.00,40.00,5,3,14,0.93
2013-5-23,54,47,41,50,44,40,97,91,73,0.00,40.00,3,2,6,1.02
2013-5-24,60,51,46,53,47,45,97,88,60,0.00,40.00,5,2,12,0.50
2013-5-25,69,56,48,54,48,44,98,78,42,0.00,40.00,6,3,10,0.16
2013-5-26,65,57,52,54,52,49,98,83,61,0.00,40.00,6,3,15,0.26
2013-5-27,58,53,49,56,52,48,97,94,80,0.00,40.00,4,1,9,0.94
2013-5-28,62,55,51,54,51,50,97,88,67,0.00,40.00,5,3,12,0.30
2013-5-29,61,54,51,52,51,48,98,89,68,0.00,40.00,10,3,25,1.19
2013-5-30,63,54,48,52,48,43,97,81,48,0.00,40.00,8,4,15,0.44
2013-5-31,71,60,47,50,47,41,96,68,38,0.00,40.00,7,3,13,0.01
2013-6-1,77,61,47,54,49,45,97,70,35,0.00,40.00,7,3,16,0.00
2013-6-2,72,62,56,54,50,48,91,66,42,0.00,40.00,9,6,19,0.00
2013-6-3,74,62,52,53,50,49,89,68,45,0.00,40.00,10,5,21,0.00
2013-6-4,87,68,49,57,49,41,97,59,21,0.00,40.00,11,4,22,0.00
2013-6-5,83,69,52,59,53,44,92,61,25,0.00,40.00,9,4,19,0.00
2013-6-6,82,70,59,58,56,52,86,63,39,0.00,40.00,9,6,19,0.00
2013-6-7,79,68,59,54,44,30,69,44,21,0.00,40.00,8,6,19,0.00
2013-6-8,78,65,53,52,47,35,88,56,24,0.00,40.00,9,6,21,0.00
2013-6-9,74,62,53,51,48,43,81,61,35,0.00,40.00,9,7,21,0.00
2013-6-10,70,61,51,47,45,43,78,57,40,0.00,40.00,9,7,20,0.00
2013-6-11,65,57,53,51,45,42,89,67,47,0.00,40.00,8,6,19,0.03
2013-6-12,67,58,51,51,48,44,95,73,44,0.00,40.00,8,4,20,0.03
2013-6-13,63,56,51,54,51,48,95,85,59,0.00,40.00,8,4,18,0.31
2013-6-14,71,60,53,54,50,46,94,71,47,0.00,40.00,7,4,14,0.04
2013-6-15,81,66,49,55,51,48,97,64,36,0.00,40.00,8,4,16,0.01
2013-6-16,72,65,58,55,53,50,79,66,48,0.00,40.00,10,6,22,0.00
2013-6-17,79,67,59,55,51,47,79,59,34,0.00,40.00,8,5,20,0.00
2013-6-18,73,62,54,54,49,41,94,66,31,0.00,40.00,8,5,19,0.07
2013-6-19,66,58,53,54,51,48,95,80,60,0.00,40.00,7,5,18,0.17
2013-6-20,62,55,53,54,52,51,95,88,67,0.00,40.00,6,4,15,0.23
2013-6-22,80,72,56,56,52,50,84,52,35,0.00,40.00,6,4,12,0.00
2013-6-23,74,64,60,63,58,55,97,82,53,0.00,40.00,5,2,10,0.41
2013-6-24,69,61,56,59,55,52,98,83,60,0.00,40.00,5,3,13,0.26
2013-6-25,67,60,56,60,58,55,97,92,72,0.00,40.00,4,2,7,0.44
2013-6-26,75,63,57,63,58,55,98,87,51,0.00,40.00,4,1,7,0.09
2013-6-27,84,69,58,64,59,57,97,76,43,0.00,40.00,6,2,16,0.01
2013-6-28,92,76,60,67,62,57,97,65,34,0.00,40.00,7,3,16,0.01
2013-6-29,88,76,66,63,59,57,77,58,38,0.00,40.00,8,5,19,0.00
2013-6-30,99,79,60,70,62,58,96,62,26,0.00,40.00,12,4,23,0.00
2013-7-1,88,77,67,68,65,62,89,68,43,0.00,40.00,9,4,21,0.02
2013-7-2,88,76,66,66,62,59,85,64,40,0.00,40.00,10,6,20,0.02
2013-7-3,84,73,63,59,52,41,74,51,23,0.00,40.00,10,6,19,0.00
2013-7-4,76,66,57,53,51,48,81,59,43,0.00,40.00,9,7,21,0.00
2013-7-5,73,65,58,54,51,48,73,60,48,0.00,40.00,9,6,18,0.00
2013-7-6,76,65,57,58,54,51,81,67,49,0.00,40.00,9,6,20,0.00
2013-7-7,78,67,59,58,56,55,87,69,51,0.00,40.00,9,6,24,0.00
2013-7-8,80,65,58,60,53,-100,86,70,37,0.00,40.00,10,6,20,0.00
2013-7-9,87,73,57,62,59,56,97,65,38,0.00,40.00,8,4,20,0.00
2013-7-10,82,70,60,58,50,-100,79,55,35,0.00,40.00,9,6,21,0.00
2013-7-11,77,64,54,53,48,45,76,57,36,0.00,40.00,10,6,22,0.00
2013-7-12,75,63,54,52,48,45,81,60,36,0.00,40.00,9,6,18,0.00
2013-7-13,83,67,50,56,51,47,94,60,33,0.00,40.00,7,3,14,0.00
2013-7-14,89,70,52,57,52,46,95,57,24,0.00,40.00,9,3,19,0.00
2013-7-15,88,71,55,60,50,44,79,49,30,0.00,40.00,6,4,15,0.00
2013-7-16,88,81,72,59,52,43,52,39,23,0.00,40.00,8,4,21,0.00
2013-7-17,79,69,61,56,54,53,79,61,42,0.00,40.00,8,6,20,0.00
2013-7-18,82,70,57,58,55,50,91,62,33,0.00,40.00,9,6,20,0.00
2013-7-19,81,70,58,60,57,54,89,66,47,0.00,40.00,9,6,22,0.00
2013-7-20,78,67,58,61,55,-100,88,69,51,0.00,40.00,10,7,22,0.00
2013-7-21,82,68,57,59,56,53,89,66,43,0.00,40.00,12,7,22,0.00
2013-7-22,82,69,59,58,56,53,90,66,39,0.00,40.00,10,7,24,0.00
2013-7-23,87,72,60,62,57,54,87,64,32,0.00,40.00,8,4,19,0.00
2013-7-24,89,75,61,61,58,54,91,59,30,0.00,40.00,8,5,19,0.00
2013-7-25,89,74,62,59,56,50,85,56,27,0.00,40.00,9,6,19,0.00
2013-7-26,90,74,59,57,54,49,84,55,27,0.00,40.00,9,5,22,0.00
2013-7-27,80,68,56,52,49,46,79,52,33,0.00,40.00,9,8,23,0.00
2013-7-28,74,63,56,53,50,49,81,64,44,0.00,40.00,9,7,21,0.00
2013-7-29,77,65,58,54,51,50,79,63,39,0.00,40.00,8,5,20,0.00
2013-7-30,84,70,59,57,54,52,85,60,35,0.00,40.00,9,5,21,0.00
2013-7-31,75,67,61,60,58,53,88,72,58,0.00,40.00,9,5,18,0.00
2013-8-1,66,63,61,59,56,54,81,77,68,0.00,40.00,7,5,16,0.00
2013-8-2,70,64,58,56,53,51,84,67,54,0.00,40.00,7,4,16,0.00
2013-8-3,83,69,55,59,56,53,92,66,42,0.00,40.00,7,4,15,0.00
2013-8-4,88,73,57,62,59,56,96,65,39,0.00,40.00,7,3,18,0.00
2013-8-5,89,75,59,61,59,55,95,62,33,0.00,40.00,8,4,17,0.00
2013-8-6,92,75,61,61,55,42,87,55,18,0.00,40.00,8,4,21,0.00
2013-8-7,85,73,58,56,53,49,84,52,31,0.00,40.00,10,4,21,0.00
2013-8-8,79,70,62,61,57,54,78,63,50,0.00,40.00,8,6,23,0.00
2013-8-9,81,71,63,65,59,56,95,68,47,0.00,40.00,8,4,21,0.04
2013-8-10,83,71,61,64,61,60,98,75,48,0.00,40.00,7,4,15,0.04
2013-8-11,78,70,63,61,58,56,79,66,48,0.00,40.00,8,5,17,0.00
2013-8-12,81,69,58,58,57,55,94,68,43,0.00,40.00,8,4,17,0.00
2013-8-13,87,70,59,57,52,-100,86,58,30,0.00,40.00,7,4,16,0.00
2013-8-14,85,70,58,57,53,46,84,58,26,0.00,40.00,7,2,15,0.00
2013-8-15,83,68,65,64,47,-100,80,57,41,0.00,40.00,8,4,15,0.00
2013-8-16,86,71,66,66,59,-100,94,73,42,0.00,40.00,7,3,18,0.04
2013-8-17,85,72,64,62,54,-100,76,56,35,0.00,40.00,8,5,17,0.02
2013-8-18,85,72,62,59,57,50,86,61,30,0.00,40.00,8,5,20,0.00
2013-8-19,85,68,59,58,47,-100,94,59,30,0.00,40.00,8,5,19,0.00
2013-8-20,84,68,59,57,52,-100,83,62,36,0.00,40.00,8,5,18,0.00
2013-8-21,94,72,54,53,49,38,93,53,15,0.00,40.00,9,3,20,0.00
2013-8-22,82,70,60,63,55,49,80,59,43,0.00,40.00,5,2,11,0.01
2013-8-23,76,68,60,64,58,54,91,71,47,0.00,40.00,8,5,19,0.02
2013-8-24,80,68,60,57,52,-100,84,62,37,0.00,40.00,8,4,16,0.01
2013-8-25,70,62,56,60,56,52,89,79,65,0.00,40.00,6,2,15,0.01
2013-8-26,80,68,61,61,57,51,95,70,39,0.00,40.00,6,2,14,0.01
2013-8-27,81,65,58,56,54,51,86,71,35,0.00,40.00,8,2,16,0.00
2013-8-28,84,77,69,63,60,57,79,57,43,0.00,40.00,7,4,16,0.11
2013-8-29,78,69,65,67,64,61,94,84,56,0.00,40.00,4,2,10,0.12
2013-8-30,83,70,62,65,61,55,97,77,38,0.00,40.00,5,2,11,0.11
2013-8-31,93,71,57,62,54,-100,96,63,24,0.00,40.00,8,3,21,0.01
2013-9-1,84,73,61,61,56,54,88,59,36,0.00,40.00,7,4,20,0.00
2013-9-2,84,73,60,59,56,54,84,58,39,0.00,40.00,7,4,17,0.00
2013-9-3,81,71,64,60,58,56,83,65,43,0.00,40.00,7,5,18,0.01
2013-9-4,74,68,61,59,57,56,85,71,57,0.00,40.00,7,4,17,0.01
2013-9-5,70,65,59,61,59,57,94,79,67,0.00,40.00,6,4,16,0.03
2013-9-6,68,61,59,61,59,56,97,91,72,0.00,40.00,7,3,17,0.66
2013-9-7,83,66,55,63,54,-100,97,74,35,0.00,40.00,8,2,13,0.01
2013-9-8,85,70,57,64,59,54,97,73,35,0.00,40.00,6,2,16,0.00
2013-9-9,81,69,59,64,61,58,97,78,51,0.00,40.00,8,3,20,0.00
2013-9-10,95,76,60,62,57,48,97,62,21,0.00,40.00,9,4,21,0.00
2013-9-11,98,77,63,59,55,49,78,53,19,0.00,40.00,10,4,21,0.00
2013-9-12,83,71,61,62,60,57,91,68,48,0.00,40.00,8,4,17,0.00
2013-9-13,79,70,62,62,60,59,91,72,55,0.00,40.00,9,7,21,0.00
2013-9-14,81,69,63,64,58,-100,93,74,47,0.00,40.00,7,3,14,0.00
2013-9-15,68,65,62,63,60,58,95,84,71,0.00,40.00,7,4,16,0.00
2013-9-16,72,65,61,60,56,54,92,74,56,0.00,40.00,5,4,14,0.00
2013-9-17,70,61,56,56,52,47,94,76,44,0.00,40.00,7,4,17,0.00
2013-9-18,59,56,51,54,52,49,93,88,78,0.00,40.00,6,4,15,0.06
2013-9-19,80,60,47,50,46,39,95,67,23,0.00,40.00,11,4,23,0.01
2013-9-20,76,61,50,57,50,44,90,69,34,0.00,40.00,7,3,15,0.00
2013-9-21,67,59,55,60,54,-100,97,86,64,0.00,40.00,6,3,15,0.14
2013-9-22,58,56,54,56,54,52,96,94,87,0.00,40.00,6,3,15,0.54
2013-9-23,61,56,54,56,54,52,96,92,72,0.00,40.00,4,3,11,0.52
2013-9-24,57,53,49,53,51,48,97,94,86,0.00,40.00,5,2,12,0.47
2013-9-25,59,52,49,51,49,48,97,88,66,0.00,40.00,6,3,13,0.14
2013-9-26,63,55,48,51,48,45,96,79,55,0.00,40.00,6,3,15,0.02
2013-9-27,60,54,49,53,50,48,96,88,65,0.00,40.00,7,3,13,0.55
2013-9-28,63,56,52,59,52,-100,98,92,79,0.00,40.00,7,3,26,2.58
2013-9-29,59,53,52,56,51,46,97,92,61,0.00,40.00,9,3,27,1.99
2013-9-30,57,53,50,52,48,41,96,83,57,0.00,40.00,11,5,31,1.30
2013-10-1,55,50,47,52,48,46,97,95,90,0.00,40.00,2,1,8,1.08
2013-10-2,55,48,44,48,46,43,97,91,71,0.00,40.00,6,2,13,0.15
2013-10-3,58,50,43,47,45,42,96,84,59,0.00,40.00,7,4,14,0.02
2013-10-4,67,50,40,52,44,39,97,83,41,0.00,40.00,6,2,13,0.00
2013-10-5,70,52,42,53,45,41,97,81,37,0.00,40.00,6,2,15,0.00
2013-10-6,70,52,43,54,46,42,97,82,41,0.00,40.00,5,2,8,0.01
2013-10-7,55,52,48,53,50,46,96,92,84,0.00,40.00,7,4,14,0.79
2013-10-8,52,49,44,50,47,43,97,93,86,0.00,40.00,6,4,19,0.42
2013-10-9,61,47,38,53,44,37,97,90,70,0.00,40.00,5,2,10,0.12
2013-10-10,60,52,45,50,46,44,97,81,56,0.00,40.00,6,3,12,0.00
2013-10-11,60,53,49,49,47,44,94,81,56,0.00,40.00,5,2,10,0.00
2013-10-12,54,49,43,50,45,-100,97,90,78,0.00,40.00,4,2,9,0.13
2013-10-13,64,48,39,49,44,38,97,87,55,0.00,40.00,5,1,11,0.01
2013-10-14,66,49,41,49,43,39,97,83,39,0.00,40.00,7,2,16,0.00
2013-10-15,64,51,44,48,40,35,93,69,35,0.00,40.00,12,5,24,0.00
2013-10-16,67,49,40,50,43,39,96,82,49,0.00,40.00,3,1,6,0.00
2013-10-17,67,50,40,50,43,39,97,81,43,0.00,40.00,6,2,11,0.00
2013-10-18,67,52,42,48,42,38,93,72,36,0.00,40.00,10,3,17,0.00
2013-10-19,67,49,40,48,41,-100,96,78,45,0.00,40.00,6,2,16,0.00
2013-10-20,68,51,42,52,46,41,97,85,48,0.00,40.00,2,1,8,0.00
2013-10-21,71,55,45,52,47,43,97,76,45,0.00,40.00,7,3,16,0.00
2013-10-22,71,56,47,55,47,43,91,74,46,0.00,40.00,4,2,9,0.00
2013-10-23,71,56,46,50,47,45,96,76,42,0.00,40.00,8,3,16,0.00
2013-10-24,71,55,46,54,48,45,96,82,47,0.00,40.00,3,2,6,0.00
2013-10-25,62,52,45,50,48,44,97,87,62,0.00,40.00,5,2,13,0.00
2013-10-26,63,52,46,49,45,-100,96,81,55,0.00,40.00,6,2,12,0.00
2013-10-27,52,49,46,50,47,44,97,91,84,0.00,40.00,9,4,22,0.12
2013-10-28,58,51,42,46,27,-100,97,45,26,0.00,40.00,15,8,34,0.01
2013-10-29,57,42,34,35,32,31,91,71,38,0.00,40.00,4,2,10,0.00
2013-10-30,56,46,33,40,36,31,95,70,44,0.00,40.00,5,2,11,0.00
2013-10-31,55,52,49,51,47,40,95,82,63,0.00,40.00,6,3,13,0.01
2013-11-1,61,51,43,51,46,42,97,87,57,0.00,40.00,3,1,7,0.02
2013-11-2,54,49,44,51,43,-100,97,86,66,0.00,40.00,11,6,29,1.29
2013-11-3,47,44,41,44,41,35,96,89,76,0.00,40.00,7,5,19,0.61
2013-11-4,43,42,41,42,41,40,97,96,94,0.00,40.00,3,1,12,0.30
2013-11-5,50,49,48,49,48,47,96,95,94,0.00,40.00,4,3,9,0.64
2013-11-6,53,50,49,51,49,48,97,96,92,0.00,40.00,4,2,10,0.23
2013-11-9,-200,0,200,-100,-100,-100,0,0,100,0.00,40.00,1,1,3,0.00
2013-11-12,49,49,49,48,48,48,97,97,97,0.00,40.00,0,0,4,0.00
2013-11-13,57,52,46,51,48,45,98,87,63,0.00,40.00,6,3,13,0.01
2013-11-14,49,46,43,44,38,34,94,74,60,0.00,40.00,6,4,14,0.08
2013-11-15,46,45,44,44,42,40,93,89,80,0.00,40.00,8,5,24,0.61
2013-11-16,47,45,43,45,39,-100,91,83,60,0.00,40.00,9,6,29,0.80
2013-11-17,52,48,45,47,44,33,95,85,60,0.00,40.00,8,4,19,0.20
2013-11-18,53,49,47,50,47,46,97,95,83,0.00,40.00,6,2,24,0.33
2013-11-19,53,49,40,52,46,35,96,88,78,0.00,40.00,9,5,20,0.73
2013-11-20,45,36,31,35,27,16,96,71,40,0.00,40.00,10,4,22,0.01
2013-11-21,41,36,28,21,11,7,75,38,26,0.00,40.00,15,9,30,0.01
2013-11-22,40,33,25,20,18,15,78,55,38,0.00,40.00,22,11,37,0.00
2013-11-23,43,34,29,24,18,-100,78,54,35,0.00,40.00,18,9,32,0.00
2013-11-24,44,32,28,27,24,22,86,73,50,0.00,40.00,4,2,9,0.00
2013-11-25,43,32,28,30,26,23,87,78,55,0.00,40.00,4,2,11,0.00
2013-11-26,30,30,29,27,26,26,87,86,85,0.00,40.00,3,2,7,0.00
2013-11-27,44,36,30,32,29,28,93,77,53,0.00,40.00,6,3,16,0.00
2013-11-28,46,38,32,34,32,30,93,79,60,0.00,40.00,4,2,10,0.00
2013-11-29,40,34,29,33,31,28,95,87,75,0.00,40.00,3,1,6,0.00
2013-11-30,52,46,42,45,38,-100,94,76,65,0.00,40.00,6,3,13,0.05
2013-12-1,56,52,46,52,50,45,97,93,81,0.00,40.00,11,7,34,0.91
2013-12-2,51,42,37,48,37,32,93,85,71,0.00,40.00,9,6,24,2.52
2013-12-3,41,34,27,34,28,20,96,80,43,0.00,40.00,7,3,19,0.09
2013-12-4,35,28,22,23,17,10,84,63,38,0.00,40.00,8,4,15,0.00
2013-12-5,29,23,18,17,14,10,88,69,50,0.00,40.00,11,4,23,0.00
2013-12-6,25,24,22,16,13,6,79,64,46,0.00,40.00,14,10,30,0.00
2013-12-7,26,20,12,8,1,-100,76,47,31,0.00,40.00,13,7,29,0.00
2013-12-8,24,15,9,13,8,4,85,73,54,0.00,40.00,4,2,8,0.00
2013-12-9,13,13,13,10,10,10,87,87,87,0.00,40.00,0,0,4,0.00
2013-12-10,29,28,28,28,27,27,95,95,95,0.00,40.00,0,0,3,0.00
2013-12-11,37,29,25,28,26,23,95,86,69,0.00,40.00,3,2,9,0.00
2013-12-12,35,29,24,31,25,21,96,85,58,0.00,40.00,5,1,8,0.19
2013-12-13,46,38,32,45,37,31,97,96,94,0.00,40.00,5,1,12,0.37
2013-12-14,43,38,35,41,36,-100,97,96,93,0.00,40.00,3,1,10,0.01
2013-12-15,41,39,38,39,38,37,97,95,91,0.00,40.00,7,5,15,0.01
2013-12-16,47,39,35,42,37,34,97,93,83,0.00,40.00,4,1,8,0.00
2013-12-17,38,35,31,36,34,30,97,95,90,0.00,40.00,8,3,19,0.00
2013-12-18,43,40,35,38,36,32,92,87,80,0.00,40.00,10,6,19,0.01
2013-12-19,37,31,28,32,29,27,96,93,82,0.00,40.00,3,1,11,0.01
2013-12-20,45,38,32,44,35,29,96,88,75,0.00,40.00,7,5,18,0.40
2013-12-21,49,46,45,46,43,-100,96,90,85,0.00,40.00,7,6,18,0.27
2013-12-22,50,48,45,48,46,44,97,95,93,0.00,40.00,7,4,18,0.10
2013-12-23,50,48,42,49,46,38,96,92,83,0.00,40.00,8,5,17,0.50
2013-12-24,43,36,33,39,35,32,97,95,82,0.00,40.00,5,2,11,0.01
2013-12-25,42,34,30,36,32,29,97,92,70,0.00,40.00,4,2,9,0.01
2013-12-26,40,33,30,35,31,29,96,93,80,0.00,40.00,4,2,9,0.01
2013-12-27,44,35,29,40,33,28,96,90,79,0.00,40.00,7,3,19,0.01
2013-12-28,45,38,34,40,35,-100,97,91,81,0.00,40.00,4,2,15,0.00
2013-12-29,40,35,31,36,33,30,97,94,86,0.00,40.00,4,2,10,0.00
2013-12-30,41,37,34,38,35,32,97,90,74,0.00,40.00,5,2,10,0.02
2013-12-31,51,43,36,41,38,35,97,86,58,0.00,40.00,6,2,15,0.01
2014-1-1,48,39,33,39,36,32,97,91,71,0.00,40.00,4,2,10,0.00
2014-1-2,50,40,35,44,37,34,96,88,71,0.00,40.00,7,2,16,0.06